Time;durP1;ratioP1;P1;durP2;ratioP2;P2;SDS_P1;SDS_P2;PMS_P1;PMS_P2;Temp;Humidity;BMP_temperature;BMP_pressure;BME280_temperature;BME280_humidity;BME280_pressure;Samples;Min_cycle;Max_cycle;Signal;HPM_P1;HPM_P2
2022/04/19 00:00:18;;;;;;;8.05;3.35;;;;;;;15.40;66.57;100483.63;2065160;28;20104;-75
2022/04/19 00:01:40;;;;;;;8.25;2.83;;;;;;;15.39;66.67;100493.38;2071195;28;20057;-74
2022/04/19 00:03:02;;;;;;;9.90;2.58;;;;;;;15.41;66.88;100488.03;2086197;28;20052;-74
2022/04/19 00:04:24;;;;;;;12.02;2.85;;;;;;;15.39;66.97;100489.81;2067804;28;20077;-74
2022/04/19 00:05:48;;;;;;;5.93;2.90;;;;;;;15.38;66.53;100488.94;2061962;28;20038;-74
2022/04/19 00:07:10;;;;;;;10.48;3.00;;;;;;;15.38;67.10;100490.72;2078320;28;20855;-75
2022/04/19 00:08:32;;;;;;;;;;;;;;;15.37;66.81;100487.16;2068172;28;20050;-74
2022/04/19 00:09:53;;;;;;;9.00;3.13;;;;;;;15.33;67.30;100489.88;2070060;28;19925;-74
2022/04/19 00:11:17;;;;;;;12.50;3.42;;;;;;;15.35;67.21;100493.41;2077582;28;20045;-74
2022/04/19 00:12:39;;;;;;;10.27;3.63;;;;;;;15.36;67.04;100488.06;2070019;28;20497;-75
2022/04/19 00:14:02;;;;;;;;;;;;;;;15.40;67.62;100497.81;2061398;28;20058;-75
2022/04/19 00:15:23;;;;;;;9.60;3.17;;;;;;;15.40;67.20;100499.56;2054507;28;19922;-73
2022/04/19 00:16:46;;;;;;;11.77;3.22;;;;;;;15.39;67.22;100490.72;2081000;28;20068;-74
2022/04/19 00:18:11;;;;;;;12.15;3.33;;;;;;;15.36;67.43;100488.06;2067461;28;20077;-74
2022/04/19 00:19:34;;;;;;;8.38;3.08;;;;;;;15.31;67.69;100486.34;2071735;28;20042;-74
2022/04/19 00:20:59;;;;;;;9.65;2.92;;;;;;;15.28;68.23;100481.06;2085813;28;20099;-74
2022/04/19 00:22:20;;;;;;;10.90;3.67;;;;;;;15.25;68.73;100487.28;2075103;28;20600;-74
2022/04/19 00:23:46;;;;;;;9.88;3.40;;;;;;;15.22;68.65;100484.66;2070377;28;20080;-75
2022/04/19 00:25:08;;;;;;;6.30;3.13;;;;;;;15.22;68.63;100482.00;2085601;28;20139;-74
2022/04/19 00:26:32;;;;;;;11.30;3.13;;;;;;;15.22;69.14;100478.47;2075249;28;20257;-74
2022/04/19 00:27:55;;;;;;;9.77;3.33;;;;;;;15.18;68.88;100490.00;2062486;28;20042;-74
2022/04/19 00:29:17;;;;;;;8.40;3.20;;;;;;;15.16;68.84;100479.41;2070195;28;20053;-73
2022/04/19 00:30:39;;;;;;;11.05;3.15;;;;;;;15.11;68.83;100481.19;2064794;28;20077;-74
2022/04/19 00:32:01;;;;;;;10.32;3.00;;;;;;;15.05;69.15;100479.44;2082485;28;20060;-74
2022/04/19 00:33:24;;;;;;;9.30;2.97;;;;;;;15.04;69.18;100476.78;2067069;28;20050;-74
2022/04/19 00:34:46;;;;;;;11.10;3.38;;;;;;;15.06;69.36;100475.03;2083811;28;20052;-74
2022/04/19 00:36:09;;;;;;;11.13;3.33;;;;;;;15.07;69.47;100477.69;2074345;28;20054;-73
2022/04/19 00:37:33;;;;;;;9.40;3.42;;;;;;;15.07;69.43;100475.00;2077562;28;20136;-73
2022/04/19 00:38:56;;;;;;;13.93;3.10;;;;;;;15.05;69.33;100479.44;2072347;28;20068;-73
2022/04/19 00:40:17;;;;;;;6.53;2.90;;;;;;;15.00;69.15;100481.25;2070259;28;20077;-73
2022/04/19 00:41:41;;;;;;;8.60;3.08;;;;;;;14.97;69.44;100478.63;2064321;28;20057;-73
2022/04/19 00:43:05;;;;;;;8.13;3.25;;;;;;;14.89;69.56;100483.13;2067863;28;20556;-74
2022/04/19 00:44:27;;;;;;;7.10;3.05;;;;;;;14.84;69.49;100478.69;2070305;28;20400;-74
2022/04/19 00:45:50;;;;;;;12.40;3.33;;;;;;;14.80;69.85;100475.19;2069305;28;20041;-74
2022/04/19 00:47:12;;;;;;;7.20;2.90;;;;;;;14.79;69.62;100481.41;2065824;28;20061;-74
2022/04/19 00:48:38;;;;;;;7.80;3.70;;;;;;;14.75;69.87;100477.00;2066715;28;20057;-74
2022/04/19 00:50:03;;;;;;;10.30;2.95;;;;;;;14.71;69.61;100486.75;2076354;28;20088;-74
2022/04/19 00:51:29;;;;;;;9.80;3.28;;;;;;;14.69;69.52;100482.38;2070643;28;20602;-74
2022/04/19 00:52:51;;;;;;;8.57;3.22;;;;;;;14.65;69.50;100485.91;2066844;28;20673;-74
2022/04/19 00:54:18;;;;;;;9.68;2.80;;;;;;;14.64;69.39;100487.69;2075753;28;20056;-74
2022/04/19 00:55:47;;;;;;;10.48;4.00;;;;;;;14.59;69.37;100478.84;2067999;28;20404;-74
2022/04/19 00:57:11;;;;;;;8.98;2.78;;;;;;;14.56;69.26;100485.97;2068681;28;20551;-74
2022/04/19 00:58:35;;;;;;;11.73;3.63;;;;;;;14.50;69.28;100486.00;2061703;28;20515;-74
2022/04/19 00:59:58;;;;;;;7.40;2.28;;;;;;;14.48;69.31;100487.78;2054103;28;20043;-74
2022/04/19 01:01:21;;;;;;;6.88;3.03;;;;;;;14.45;69.64;100480.69;2052502;28;20121;-74
2022/04/19 01:02:44;;;;;;;7.68;3.45;;;;;;;14.43;69.35;100486.94;2059295;28;20045;-74
2022/04/19 01:04:07;;;;;;;11.73;3.50;;;;;;;14.42;69.13;100485.16;2067991;28;20132;-74
2022/04/19 01:05:31;;;;;;;10.38;3.00;;;;;;;14.38;69.21;100488.69;2051658;28;20055;-75
2022/04/19 01:06:54;;;;;;;5.90;2.58;;;;;;;14.35;69.36;100485.16;2068407;28;20045;-74
2022/04/19 01:08:17;;;;;;;14.88;2.80;;;;;;;14.34;69.18;100493.13;2067257;28;20092;-74
2022/04/19 01:09:40;;;;;;;8.52;2.88;;;;;;;14.31;69.27;100494.00;2059215;28;20108;-74
2022/04/19 01:14:37;;;;;;;9.93;2.65;;;;;;;14.30;68.87;100499.34;2064200;28;20061;-74
2022/04/19 01:16:00;;;;;;;7.43;2.72;;;;;;;14.27;68.95;100500.22;2062349;28;20046;-74
2022/04/19 01:17:22;;;;;;;8.55;2.80;;;;;;;14.27;68.79;100499.34;2063588;28;20045;-74
2022/04/19 01:18:45;;;;;;;;;;;;;;;14.23;68.79;100490.50;2066008;28;20053;-74
2022/04/19 01:20:07;;;;;;;;;;;;;;;14.18;69.00;100496.69;2066508;28;20461;-75
2022/04/19 01:21:44;;;;;;;10.10;3.90;;;;;;;14.14;69.07;100493.19;2065193;28;19921;-74
2022/04/19 01:23:07;;;;;;;12.02;2.70;;;;;;;14.08;69.38;100494.97;2079330;28;20490;-74
2022/04/19 01:24:32;;;;;;;12.75;2.63;;;;;;;14.03;69.58;100496.78;2066684;28;20081;-74
2022/04/19 01:25:54;;;;;;;13.07;3.25;;;;;;;13.99;69.55;100490.56;2075947;28;20160;-74
2022/04/19 01:27:16;;;;;;;8.50;2.83;;;;;;;13.96;69.76;100491.47;2066818;28;20053;-74
2022/04/19 01:28:41;;;;;;;6.78;2.67;;;;;;;13.93;69.75;100491.47;2062104;28;20070;-74
2022/04/19 01:30:05;;;;;;;6.60;2.80;;;;;;;13.93;69.71;100498.56;2069977;28;20148;-74
2022/04/19 01:31:29;;;;;;;8.73;3.10;;;;;;;13.87;69.93;100490.59;2074332;28;20080;-74
2022/04/19 01:32:51;;;;;;;8.95;2.72;;;;;;;13.87;70.06;100495.91;2065446;28;20046;-74
2022/04/19 01:34:14;;;;;;;13.20;3.20;;;;;;;13.87;70.08;100490.59;2060537;28;20154;-74
2022/04/19 01:35:36;;;;;;;11.40;3.35;;;;;;;13.87;70.01;100480.00;2064379;28;20046;-74
2022/04/19 01:37:01;;;;;;;11.07;3.20;;;;;;;13.90;70.04;100480.00;2065267;28;20054;-73
2022/04/19 01:38:24;;;;;;;7.70;2.95;;;;;;;13.89;70.10;100494.16;2066242;28;20046;-74
2022/04/19 01:41:31;;;;;;;10.23;2.70;;;;;;;13.92;70.16;100480.84;2069336;28;20144;-74
2022/04/19 01:42:59;;;;;;;8.90;2.97;;;;;;;13.94;70.14;100489.72;2073040;28;20038;-74
2022/04/19 01:44:25;;;;;;;11.57;2.78;;;;;;;13.94;70.07;100489.72;2055287;28;20042;-74
2022/04/19 01:45:48;;;;;;;8.55;3.05;;;;;;;13.95;69.93;100492.38;2074328;28;20095;-74
2022/04/19 01:47:15;;;;;;;10.68;3.30;;;;;;;13.96;69.90;100490.59;2064752;28;20066;-74
2022/04/19 01:48:42;;;;;;;8.57;3.88;;;;;;;13.93;69.93;100491.47;2055604;28;20584;-74
2022/04/19 01:50:05;;;;;;;9.23;2.97;;;;;;;13.94;70.13;100492.38;2080148;28;20045;-74
2022/04/19 01:51:28;;;;;;;10.85;2.78;;;;;;;13.92;70.16;100500.31;2079164;28;20053;-73
2022/04/19 01:52:53;;;;;;;14.80;3.00;;;;;;;13.91;70.35;100495.03;2063184;28;20054;-74
2022/04/19 01:54:19;;;;;;;5.80;2.95;;;;;;;13.84;70.04;100496.81;2052365;28;20063;-74
2022/04/19 01:55:41;;;;;;;7.47;2.97;;;;;;;13.78;70.28;100495.94;2067426;28;20149;-73
2022/04/19 01:57:15;;;;;;;8.68;3.10;;;;;;;13.67;70.59;100493.28;2057395;28;20043;-74
2022/04/19 01:58:44;;;;;;;11.55;3.28;;;;;;;13.63;71.04;100491.53;2075848;28;20131;-72
2022/04/19 02:00:09;;;;;;;7.32;3.60;;;;;;;13.66;70.92;100498.59;2066398;28;20042;-73
2022/04/19 02:01:44;;;;;;;10.35;3.38;;;;;;;13.68;70.87;100494.19;2063815;28;20127;-74
2022/04/19 02:03:07;;;;;;;5.47;2.72;;;;;;;13.72;70.63;100495.97;2067184;28;20046;-73
2022/04/19 02:04:29;;;;;;;17.23;3.42;;;;;;;13.72;70.27;100491.50;2061324;28;20508;-74
2022/04/19 02:05:52;;;;;;;7.82;3.00;;;;;;;13.70;70.59;100500.38;2061373;28;20030;-73
2022/04/19 02:07:15;;;;;;;9.77;2.15;;;;;;;13.70;70.40;100497.72;2054112;28;20049;-74
2022/04/19 02:08:39;;;;;;;11.27;2.78;;;;;;;13.71;70.47;100499.50;2064069;28;20081;-74
2022/04/19 02:10:06;;;;;;;7.03;3.22;;;;;;;13.71;70.45;100505.69;2076279;28;20107;-74
2022/04/19 02:11:29;;;;;;;9.88;2.83;;;;;;;13.72;70.58;100506.56;2064110;28;20476;-74
2022/04/19 02:13:13;;;;;;;8.85;3.30;;;;;;;13.66;70.45;100510.09;2071768;28;20204;-74
2022/04/19 02:14:58;;;;;;;7.47;2.55;;;;;;;13.59;70.49;100502.16;2063447;28;20061;-74
2022/04/19 02:16:22;;;;;;;12.02;3.05;;;;;;;13.55;70.78;100510.13;2061871;28;20112;-74
2022/04/19 02:17:45;;;;;;;10.98;2.80;;;;;;;13.52;70.49;100509.25;2050533;28;20050;-73
2022/04/19 02:19:09;;;;;;;11.60;2.45;;;;;;;13.50;70.85;100503.06;2066098;28;20148;-74
2022/04/19 02:20:31;;;;;;;7.50;3.08;;;;;;;13.49;70.96;100501.28;2061738;28;20042;-74
2022/04/19 02:21:56;;;;;;;8.10;2.45;;;;;;;13.52;71.03;100502.13;2061294;28;20105;-74
2022/04/19 02:23:19;;;;;;;8.30;2.00;;;;;;;13.55;70.77;100506.56;2068339;28;20050;-73
2022/04/19 02:24:43;;;;;;;10.65;2.58;;;;;;;13.56;70.60;100495.97;2069499;28;20045;-74
2022/04/19 02:26:06;;;;;;;10.73;2.88;;;;;;;13.58;70.62;100503.94;2055309;28;20054;-74
2022/04/19 02:27:31;;;;;;;11.30;2.80;;;;;;;13.57;70.56;100496.84;2072475;28;20099;-74
2022/04/19 02:28:54;;;;;;;5.97;2.00;;;;;;;13.53;70.78;100501.25;2064266;28;20487;-72
2022/04/19 02:30:26;;;;;;;;;;;;;;;13.53;70.54;100505.69;2063192;28;20050;-73
2022/04/19 02:31:56;;;;;;;6.53;2.50;;;;;;;13.50;70.62;100508.34;2060188;28;19925;-73
2022/04/19 02:33:19;;;;;;;7.00;3.00;;;;;;;13.44;70.33;100516.31;2074625;28;20060;-73
2022/04/19 02:34:40;;;;;;;8.90;2.10;;;;;;;13.30;70.63;100513.66;2064492;28;20042;-74
2022/04/19 02:36:04;;;;;;;10.32;2.72;;;;;;;13.22;71.22;100517.19;2066649;28;20080;-74
2022/04/19 02:37:28;;;;;;;8.40;2.85;;;;;;;13.17;71.39;100511.88;2052198;28;20515;-74
2022/04/19 02:38:50;;;;;;;12.10;3.00;;;;;;;13.18;71.22;100516.31;2064295;28;20133;-74
2022/04/19 02:40:15;;;;;;;10.27;2.78;;;;;;;13.25;71.32;100517.19;2068510;28;20143;-72
2022/04/19 02:41:38;;;;;;;10.93;2.88;;;;;;;13.29;71.21;100514.53;2058956;28;20084;-73
2022/04/19 02:43:01;;;;;;;8.18;2.63;;;;;;;13.34;71.05;100519.81;2061914;28;20487;-73
2022/04/19 02:44:25;;;;;;;8.32;2.40;;;;;;;13.39;71.14;100520.75;2069184;28;20054;-72
2022/04/19 02:45:58;;;;;;;7.32;2.22;;;;;;;13.43;71.13;100522.50;2069503;28;20033;-73
2022/04/19 02:47:25;;;;;;;7.75;2.58;;;;;;;13.47;70.83;100529.56;2054113;28;20153;-73
2022/04/19 02:48:48;;;;;;;12.20;2.75;;;;;;;13.48;70.44;100523.38;2068868;28;20080;-73
2022/04/19 02:50:09;;;;;;;8.30;2.33;;;;;;;13.48;70.42;100532.22;2063768;28;20054;-73
2022/04/19 02:51:33;;;;;;;8.90;2.70;;;;;;;13.46;70.64;100528.66;2076909;28;20144;-73
2022/04/19 02:52:55;;;;;;;8.90;2.22;;;;;;;13.45;70.50;100526.03;2068307;28;20537;-73
2022/04/19 02:54:17;;;;;;;11.27;2.70;;;;;;;13.41;70.27;100530.44;2064704;28;20061;-73
2022/04/19 02:55:43;;;;;;;6.97;2.35;;;;;;;13.38;70.36;100533.13;2069689;28;20057;-72
2022/04/19 02:57:06;;;;;;;7.55;2.28;;;;;;;13.36;70.48;100526.03;2066667;28;20471;-73
2022/04/19 02:58:29;;;;;;;7.00;2.58;;;;;;;13.34;70.42;100536.63;2069434;28;20057;-73
2022/04/19 02:59:53;;;;;;;8.55;2.47;;;;;;;13.32;70.34;100529.56;2069160;28;20045;-73
2022/04/19 03:01:16;;;;;;;10.60;2.40;;;;;;;13.30;70.54;100532.22;2066606;28;20049;-73
2022/04/19 03:02:40;;;;;;;6.97;2.35;;;;;;;13.30;70.73;100533.97;2071845;28;20045;-73
2022/04/19 03:04:03;;;;;;;15.13;2.35;;;;;;;13.29;70.56;100535.75;2064173;28;20053;-73
2022/04/19 03:05:26;;;;;;;4.68;1.98;;;;;;;13.30;70.37;100544.59;2071045;28;20496;-74
2022/04/19 03:06:47;;;;;;;6.35;1.58;;;;;;;13.29;70.77;100540.16;2059607;28;20062;-73
2022/04/19 03:08:10;;;;;;;12.27;2.42;;;;;;;13.30;70.78;100550.78;2066050;28;20056;-74
2022/04/19 03:09:32;;;;;;;11.82;2.47;;;;;;;13.30;70.95;100548.13;2063731;28;20054;-74
2022/04/19 03:10:58;;;;;;;7.25;2.03;;;;;;;13.33;71.10;100547.22;2063676;28;20042;-74
2022/04/19 03:12:20;;;;;;;9.35;2.67;;;;;;;13.34;71.29;100552.53;2079754;28;20037;-74
2022/04/19 03:14:01;;;;;;;5.00;2.20;;;;;;;13.35;70.86;100559.59;2062120;28;20046;-74
2022/04/19 03:15:23;;;;;;;6.00;1.75;;;;;;;13.37;71.09;100552.53;2053623;28;20043;-73
2022/04/19 03:16:45;;;;;;;14.27;2.22;;;;;;;13.35;70.92;100551.66;2050174;28;20137;-74
2022/04/19 03:18:08;;;;;;;9.43;2.40;;;;;;;13.35;71.20;100553.41;2058615;28;20488;-74
2022/04/19 03:19:32;;;;;;;10.55;2.63;;;;;;;13.36;70.80;100556.06;2047623;29;20086;-74
2022/04/19 03:20:54;;;;;;;7.40;2.60;;;;;;;13.38;70.96;100556.09;2050691;28;20098;-74
2022/04/19 03:22:16;;;;;;;8.55;2.25;;;;;;;13.38;71.01;100556.09;2059328;28;20050;-73
2022/04/19 03:28:53;;;;;;;7.45;2.63;;;;;;;13.28;70.55;100556.94;2071613;28;20053;-73
2022/04/19 03:30:16;;;;;;;9.10;2.40;;;;;;;13.24;70.56;100566.66;2062871;28;20074;-73
2022/04/19 03:31:39;;;;;;;9.52;2.50;;;;;;;13.24;70.50;100568.44;2062224;28;20723;-74
2022/04/19 03:33:02;;;;;;;8.52;2.55;;;;;;;13.21;70.58;100571.94;2059248;28;20047;-74
2022/04/19 03:34:26;;;;;;;13.77;2.83;;;;;;;13.21;70.26;100565.75;2058634;28;20058;-74
2022/04/19 03:35:48;;;;;;;5.50;2.40;;;;;;;13.18;70.33;100577.25;2074854;28;20125;-74
2022/04/19 03:37:11;;;;;;;5.65;2.15;;;;;;;13.14;70.82;100578.13;2062413;28;20507;-74
2022/04/19 03:38:34;;;;;;;7.90;2.63;;;;;;;13.14;70.56;100573.72;2061011;28;20491;-74
2022/04/19 03:39:55;;;;;;;11.10;2.78;;;;;;;13.15;70.45;100579.88;2058648;28;20038;-74
2022/04/19 03:41:18;;;;;;;11.55;2.75;;;;;;;13.17;70.86;100575.50;2082770;28;20061;-73
2022/04/19 03:42:42;;;;;;;5.78;2.10;;;;;;;13.18;70.46;100587.88;2076196;28;20491;-74
2022/04/19 03:44:07;;;;;;;7.10;2.40;;;;;;;13.16;70.81;100592.28;2070880;28;20042;-74
2022/04/19 03:45:30;;;;;;;15.55;3.22;;;;;;;13.13;70.85;100589.59;2075047;28;20147;-74
2022/04/19 03:47:11;;;;;;;5.68;2.40;;;;;;;13.09;71.21;100593.09;2066143;28;20128;-75
2022/04/19 03:48:34;;;;;;;8.05;2.47;;;;;;;13.06;71.16;100585.16;2071792;28;20045;-74
2022/04/19 03:49:56;;;;;;;8.77;2.53;;;;;;;13.04;71.33;100594.84;2068816;28;20113;-73
2022/04/19 03:51:17;;;;;;;10.07;2.58;;;;;;;13.07;71.21;100594.84;2063811;28;20049;-74
2022/04/19 03:52:41;;;;;;;9.80;2.67;;;;;;;13.12;71.17;100590.47;2073646;28;20161;-74
2022/04/19 03:54:03;;;;;;;5.53;2.70;;;;;;;13.14;71.03;100594.03;2063002;28;20137;-73
2022/04/19 03:55:26;;;;;;;5.07;2.30;;;;;;;13.16;71.12;100589.63;2066219;28;20056;-73
2022/04/19 03:56:48;;;;;;;5.82;2.35;;;;;;;13.17;71.17;100591.41;2058285;28;20050;-73
2022/04/19 03:58:13;;;;;;;8.32;2.40;;;;;;;13.23;71.13;100599.34;2050453;28;20047;-74
2022/04/19 03:59:38;;;;;;;13.35;3.83;;;;;;;13.22;71.01;100602.88;2065225;28;20440;-73
2022/04/19 04:01:01;;;;;;;8.98;3.28;;;;;;;13.24;71.24;100610.84;2060209;28;20038;-74
2022/04/19 04:02:23;;;;;;;9.85;4.18;;;;;;;13.24;71.31;100609.09;2057355;28;20126;-74
2022/04/19 04:03:47;;;;;;;8.82;3.30;;;;;;;13.29;71.21;100604.66;2060667;28;20153;-73
2022/04/19 04:05:10;;;;;;;10.75;3.38;;;;;;;13.36;71.19;100613.53;2058963;28;20093;-74
2022/04/19 04:06:33;;;;;;;9.93;2.40;;;;;;;13.46;71.31;100613.53;2057589;28;20050;-74
2022/04/19 04:07:58;;;;;;;9.00;2.65;;;;;;;13.59;71.33;100610.91;2064397;28;20050;-74
2022/04/19 04:09:23;;;;;;;10.43;2.72;;;;;;;13.71;71.30;100613.56;2067688;28;20077;-74
2022/04/19 04:10:45;;;;;;;11.95;2.78;;;;;;;13.84;71.38;100620.66;2066166;28;20084;-74
2022/04/19 04:12:09;;;;;;;7.72;2.38;;;;;;;13.98;71.61;100621.50;2071721;28;20084;-74
2022/04/19 04:13:34;;;;;;;9.82;2.70;;;;;;;14.06;71.09;100619.72;2069198;28;20049;-74
2022/04/19 04:14:56;;;;;;;6.75;2.45;;;;;;;14.15;71.34;100621.50;2074540;28;20153;-73
2022/04/19 04:16:18;;;;;;;4.95;2.08;;;;;;;14.24;71.14;100621.50;2066040;28;20066;-73
2022/04/19 04:17:41;;;;;;;7.32;2.20;;;;;;;14.33;71.19;100613.50;2065030;28;20101;-74
2022/04/19 04:19:03;;;;;;;9.10;2.22;;;;;;;14.42;71.24;100612.63;2074121;28;20064;-74
2022/04/19 04:20:27;;;;;;;12.13;1.90;;;;;;;14.49;70.84;100622.34;2063391;28;20057;-73
2022/04/19 04:21:49;;;;;;;7.70;1.77;;;;;;;14.59;71.09;100626.75;2074209;28;20049;-74
2022/04/19 04:23:13;;;;;;;8.27;1.95;;;;;;;14.69;70.88;100618.75;2063256;28;20543;-74
2022/04/19 04:24:35;;;;;;;7.88;2.00;;;;;;;14.82;70.69;100622.25;2052777;28;20530;-74
2022/04/19 04:25:58;;;;;;;9.15;2.08;;;;;;;14.91;70.30;100621.31;2058591;28;20054;-73
2022/04/19 04:27:22;;;;;;;7.28;2.42;;;;;;;15.03;70.16;100619.47;2069048;28;20105;-74
2022/04/19 04:28:47;;;;;;;7.53;1.95;;;;;;;15.15;70.36;100623.88;2055288;28;20047;-74
2022/04/19 04:30:10;;;;;;;6.10;1.75;;;;;;;15.26;70.37;100622.03;2064194;28;20088;-74
2022/04/19 04:31:41;;;;;;;5.90;2.03;;;;;;;15.39;69.70;100633.47;2061596;28;20089;-74
2022/04/19 04:33:10;;;;;;;10.23;2.35;;;;;;;15.51;69.44;100633.38;2051934;28;20050;-73
2022/04/19 04:34:31;;;;;;;7.75;2.13;;;;;;;15.62;69.26;100644.00;2059437;28;20081;-74
2022/04/19 04:35:55;;;;;;;8.57;2.00;;;;;;;15.73;69.40;100645.69;2075224;28;20041;-73
2022/04/19 04:37:18;;;;;;;7.97;2.28;;;;;;;15.89;69.50;100636.69;2055152;28;20053;-73
2022/04/19 04:38:46;;;;;;;10.15;2.10;;;;;;;16.06;69.11;100633.88;2069768;28;20064;-74
2022/04/19 04:40:18;;;;;;;6.57;1.80;;;;;;;16.24;68.56;100638.16;2065174;28;20069;-74
2022/04/19 04:41:45;;;;;;;9.38;2.28;;;;;;;16.38;68.08;100635.34;2053264;28;20062;-74
2022/04/19 04:43:08;;;;;;;9.57;1.75;;;;;;;16.50;67.63;100643.22;2062056;28;20145;-74
2022/04/19 04:44:32;;;;;;;9.18;2.17;;;;;;;16.65;67.66;100641.31;2065427;28;20042;-75
2022/04/19 04:50:51;;;;;;;6.05;1.98;;;;;;;17.25;66.01;100646.78;2056707;28;20046;-75
2022/04/19 04:52:18;;;;;;;8.98;1.70;;;;;;;17.37;65.68;100656.41;2060705;28;20050;-73
2022/04/19 04:53:41;;;;;;;8.43;1.80;;;;;;;17.45;64.59;100655.41;2076441;28;20045;-74
2022/04/19 04:55:10;;;;;;;6.78;1.85;;;;;;;17.59;64.32;100654.31;2069688;28;20058;-74
2022/04/19 04:56:33;;;;;;;7.13;2.08;;;;;;;17.73;64.10;100657.69;2063962;28;20046;-74
2022/04/19 04:57:59;;;;;;;5.32;1.30;;;;;;;17.87;63.31;100656.56;2070053;28;20069;-73
2022/04/19 04:59:22;;;;;;;7.82;2.03;;;;;;;17.96;63.05;100650.19;2068750;28;20068;-74
2022/04/19 05:00:46;;;;;;;9.48;2.30;;;;;;;18.09;62.94;100649.09;2063815;28;20045;-74
2022/04/19 05:02:09;;;;;;;7.25;2.10;;;;;;;18.21;62.97;100656.00;2065974;28;20050;-75
2022/04/19 05:03:30;;;;;;;9.85;1.90;;;;;;;18.42;62.15;100650.28;2064337;28;20054;-75
2022/04/19 05:04:54;;;;;;;5.60;2.17;;;;;;;18.60;61.69;100649.97;2068663;28;20038;-74
2022/04/19 05:06:16;;;;;;;5.30;2.10;;;;;;;18.82;60.92;100654.91;2064236;28;20077;-75
2022/04/19 05:07:39;;;;;;;7.97;2.08;;;;;;;19.00;59.38;100650.06;2075114;28;20360;-74
2022/04/19 05:09:02;;;;;;;8.05;2.38;;;;;;;19.13;58.21;100657.81;2066934;28;20052;-75
2022/04/19 05:10:25;;;;;;;6.07;1.98;;;;;;;19.22;57.49;100658.53;2062133;28;20385;-74
2022/04/19 05:11:50;;;;;;;5.57;1.92;;;;;;;19.32;56.88;100662.75;2067164;28;20042;-74
2022/04/19 05:13:15;;;;;;;10.00;3.22;;;;;;;19.39;56.27;100658.13;2070163;28;20081;-75
2022/04/19 05:14:37;;;;;;;15.10;5.35;;;;;;;19.43;55.46;100652.66;2057565;28;20137;-74
2022/04/19 05:16:02;;;;;;;20.48;9.40;;;;;;;19.51;55.64;100652.53;2061154;28;20073;-74
2022/04/19 05:17:26;;;;;;;16.30;6.47;;;;;;;19.59;55.38;100655.94;2064252;28;20141;-75
2022/04/19 05:18:50;;;;;;;11.50;4.85;;;;;;;19.75;54.88;100656.47;2061367;28;20042;-74
2022/04/19 05:20:13;;;;;;;12.18;4.18;;;;;;;19.90;54.72;100659.63;2072606;28;20096;-74
2022/04/19 05:21:38;;;;;;;9.68;3.85;;;;;;;20.14;54.33;100657.28;2067945;28;20490;-74
2022/04/19 05:23:01;;;;;;;12.65;4.72;;;;;;;20.34;53.37;100655.00;2061839;28;20527;-74
2022/04/19 05:24:23;;;;;;;6.55;2.60;;;;;;;20.53;53.26;100655.41;2074193;28;20076;-74
2022/04/19 05:25:46;;;;;;;9.38;3.67;;;;;;;20.70;52.34;100663.84;2060102;28;20054;-74
2022/04/19 05:27:09;;;;;;;9.52;2.70;;;;;;;20.89;52.23;100656.16;2067576;28;20073;-75
2022/04/19 05:28:33;;;;;;;7.85;3.30;;;;;;;21.08;52.30;100662.75;2060488;28;20038;-75
2022/04/19 05:30:02;;;;;;;6.43;2.03;;;;;;;21.28;52.17;100668.47;2064508;28;20511;-74
2022/04/19 05:31:27;;;;;;;5.75;2.03;;;;;;;21.49;51.69;100666.94;2066789;28;20057;-74
2022/04/19 05:32:50;;;;;;;5.13;1.88;;;;;;;21.66;51.73;100661.06;2059438;28;20105;-74
2022/04/19 05:34:13;;;;;;;7.78;2.60;;;;;;;21.80;51.37;100662.34;2056793;28;20058;-75
2022/04/19 05:35:36;;;;;;;8.32;2.70;;;;;;;21.96;50.85;100664.59;2064823;28;20078;-74
2022/04/19 05:36:59;;;;;;;18.65;8.52;;;;;;;22.11;50.72;100664.97;2071483;28;20140;-74
2022/04/19 05:38:22;;;;;;;64.30;34.83;;;;;;;22.28;50.38;100661.69;2074035;28;20038;-74
2022/04/19 05:39:45;;;;;;;388.33;207.05;;;;;;;22.40;50.00;100660.38;2069108;28;20047;-75
2022/04/19 05:41:06;;;;;;;562.55;322.98;;;;;;;22.54;49.85;100660.78;2061800;28;20038;-75
2022/04/19 05:42:30;;;;;;;312.42;160.23;;;;;;;22.75;49.68;100665.44;2081992;28;20072;-75
2022/04/19 05:43:52;;;;;;;268.27;137.65;;;;;;;22.93;49.15;100667.47;2058740;28;20043;-75
2022/04/19 05:45:15;;;;;;;209.57;103.22;;;;;;;23.05;48.83;100669.69;2059545;28;20046;-75
2022/04/19 05:46:39;;;;;;;149.27;74.95;;;;;;;23.20;48.19;100664.69;2053786;28;20141;-74
2022/04/19 05:48:01;;;;;;;114.75;59.33;;;;;;;23.37;47.89;100672.97;2053908;28;20088;-75
2022/04/19 05:49:26;;;;;;;74.93;41.42;;;;;;;23.50;47.50;100671.59;2072423;28;20519;-74
2022/04/19 05:50:47;;;;;;;23.90;12.32;;;;;;;23.61;46.88;100672.09;2063275;28;20133;-74
2022/04/19 05:52:10;;;;;;;;;;;;;;;23.59;46.43;100673.94;2054526;28;20049;-75
2022/04/19 05:53:33;;;;;;;;;;;;;;;23.53;46.32;100676.00;2075886;28;20004;-75
2022/04/19 05:54:55;;;;;;;;;;;;;;;23.50;46.15;100674.31;2064694;28;19922;-75
2022/04/19 05:56:21;;;;;;;12.40;4.82;;;;;;;23.59;45.96;100681.16;2059221;28;19969;-75
2022/04/19 05:57:44;;;;;;;37.78;17.90;;;;;;;23.61;44.67;100679.28;2060069;28;20100;-74
2022/04/19 05:59:07;;;;;;;37.67;19.73;;;;;;;23.64;44.56;100682.72;2051228;28;20050;-75
2022/04/19 06:00:29;;;;;;;52.60;26.80;;;;;;;23.80;44.03;100683.88;2053891;28;20098;-75
2022/04/19 06:05:14;;;;;;;22.40;12.85;;;;;;;24.33;42.54;100683.53;2063007;28;20050;-75
2022/04/19 06:06:39;;;;;;;27.55;14.05;;;;;;;24.32;41.90;100684.47;2061754;28;20054;-74
2022/04/19 06:08:03;;;;;;;29.25;14.65;;;;;;;24.36;42.13;100680.69;2055446;28;20045;-75
2022/04/19 06:09:24;;;;;;;15.10;5.53;;;;;;;24.51;42.08;100687.25;2057491;28;20879;-75
2022/04/19 06:10:49;;;;;;;12.20;6.85;;;;;;;24.67;41.70;100682.09;2063387;28;20800;-75
2022/04/19 06:12:12;;;;;;;18.13;9.10;;;;;;;24.78;41.46;100688.75;2065399;28;20548;-75
2022/04/19 06:13:42;;;;;;;11.18;5.22;;;;;;;24.81;41.41;100685.91;2061387;28;20054;-75
2022/04/19 06:15:04;;;;;;;8.18;2.47;;;;;;;24.84;41.34;100687.59;2070392;28;20038;-75
2022/04/19 06:16:27;;;;;;;7.65;2.15;;;;;;;24.92;40.53;100680.06;2068393;28;20598;-75
2022/04/19 06:17:53;;;;;;;5.18;1.92;;;;;;;24.95;40.56;100691.59;2066081;28;20070;-75
2022/04/19 06:19:32;;;;;;;5.68;1.60;;;;;;;25.00;40.24;100688.72;2070908;28;20046;-75
2022/04/19 06:20:54;;;;;;;4.47;1.60;;;;;;;25.05;39.89;100683.09;2053572;28;20054;-75
2022/04/19 06:22:17;;;;;;;7.25;1.63;;;;;;;25.22;39.84;100686.78;2067060;28;20050;-75
2022/04/19 06:23:50;;;;;;;5.00;1.70;;;;;;;25.47;39.87;100686.50;2068382;28;20057;-75
2022/04/19 06:25:13;;;;;;;17.33;8.38;;;;;;;25.67;39.35;100688.28;2065245;28;20045;-74
2022/04/19 06:26:36;;;;;;;31.17;19.10;;;;;;;25.67;39.03;100688.28;2075203;28;20600;-75
2022/04/19 06:28:06;;;;;;;18.45;8.65;;;;;;;25.66;38.97;100695.56;2061484;28;20427;-75
2022/04/19 06:29:44;;;;;;;8.25;3.35;;;;;;;25.66;38.99;100690.16;2055579;28;20062;-74
2022/04/19 06:31:08;;;;;;;10.73;1.92;;;;;;;25.50;38.69;100690.91;2075185;28;20049;-74
2022/04/19 06:32:32;;;;;;;4.75;1.38;;;;;;;25.27;38.83;100684.72;2058594;28;20138;-74
2022/04/19 06:33:56;;;;;;;12.38;3.97;;;;;;;25.27;38.51;100695.53;2063679;28;20061;-76
2022/04/19 06:35:24;;;;;;;13.88;5.53;;;;;;;25.14;39.12;100691.66;2066202;28;20042;-75
2022/04/19 06:36:47;;;;;;;15.32;6.93;;;;;;;25.19;38.82;100695.03;2074195;28;20131;-75
2022/04/19 06:38:10;;;;;;;8.90;2.15;;;;;;;25.22;38.58;100694.88;2064455;28;20129;-75
2022/04/19 06:39:32;;;;;;;5.85;1.38;;;;;;;24.80;38.59;100699.50;2067486;28;20671;-75
2022/04/19 06:40:55;;;;;;;6.97;1.52;;;;;;;24.37;38.96;100701.34;2073740;28;20702;-75
2022/04/19 06:42:20;;;;;;;3.67;1.20;;;;;;;23.97;39.28;100701.19;2063148;28;20555;-76
2022/04/19 06:44:01;;;;;;;5.72;1.48;;;;;;;23.32;40.43;100691.16;2069155;28;20061;-75
2022/04/19 06:45:26;;;;;;;4.18;1.23;;;;;;;22.82;40.83;100696.59;2057862;28;20054;-76
2022/04/19 06:46:58;;;;;;;9.13;1.73;;;;;;;22.41;42.17;100697.13;2059073;28;20042;-75
2022/04/19 06:48:21;;;;;;;3.22;0.82;;;;;;;22.56;41.96;100700.19;2054619;28;20491;-76
2022/04/19 06:49:45;;;;;;;6.53;1.10;;;;;;;22.90;41.38;100702.59;2057461;28;20157;-75